^^
Grace C. Lehan Memorial Weather Station Historical Data
Daily Summary for January 13, 2021 Units:  English    Metric   Both
Daily Weekly Monthly Yearly
  High: Low: Average:
Temperature: 56.2 °F 36 °F 42.5 °F
Dew Point: 30.6 °F 24.5 °F 26.7 °F
Humidity: 64% 32.1% 55%
Wind Speed: 3mph 0mph 0.5mph
Wind Gust: 13mph - -
Wind- - WSW
Pressure: 30.20 in 30.08 in -
Precipitation: 0.00 in    
 
 
Tabular Data for January 13, 2021
Time Temperature Dew Point Pressure Wind Wind Speed Wind Gust Humidity Rainfall Rate (Hourly) solar
00:04 36.6 °F 24.8 °F 30.14 in Calm   1 mph 62% 0.00 in 0 W/m2
00:09 36.6 °F 24.8 °F 30.13 in Calm     62% 0.00 in 0 W/m2
00:14 36.5 °F 24.8 °F 30.13 in Calm     62% 0.00 in 0 W/m2
00:19 36.5 °F 24.7 °F 30.13 in WSW 0.1 mph 1 mph 62% 0.00 in 0 W/m2
00:24 36.6 °F 24.8 °F 30.13 in Calm   1 mph 62% 0.00 in 0 W/m2
00:29 36.5 °F 24.5 °F 30.13 in Calm   1 mph 61.4% 0.00 in 0 W/m2
00:34 36.6 °F 24.8 °F 30.13 in WSW 0.1 mph 1 mph 62% 0.00 in 0 W/m2
00:39 36.6 °F 24.8 °F 30.12 in WSW 0.4 mph 2 mph 62% 0.00 in 0 W/m2
00:44 36.6 °F 24.9 °F 30.13 in WSW 0.7 mph 2 mph 62% 0.00 in 0 W/m2
00:49 36.7 °F 25 °F 30.13 in WSW 0.1 mph 2 mph 62% 0.00 in 0 W/m2
00:54 36.8 °F 25 °F 30.13 in WSW 0.3 mph 2 mph 62% 0.00 in 0 W/m2
00:59 36.9 °F 25.1 °F 30.13 in WSW 0.1 mph 2 mph 62% 0.00 in 0 W/m2
01:04 36.8 °F 25 °F 30.12 in WSW 0.1 mph 2 mph 62% 0.00 in 0 W/m2
01:09 36.7 °F 24.9 °F 30.12 in Calm   1 mph 62% 0.00 in 0 W/m2
01:14 36.6 °F 25.1 °F 30.12 in WSW 0.2 mph 2 mph 62.7% 0.00 in 0 W/m2
01:19 36.5 °F 25.1 °F 30.12 in WSW 0.1 mph 2 mph 63% 0.00 in 0 W/m2
01:24 36.3 °F 25 °F 30.12 in WSW 0.5 mph 2 mph 63% 0.00 in 0 W/m2
01:29 36.2 °F 24.9 °F 30.12 in WSW 0.3 mph 2 mph 63% 0.00 in 0 W/m2
01:34 36.2 °F 25.2 °F 30.13 in Calm   2 mph 64% 0.00 in 0 W/m2
01:39 36.2 °F 25.2 °F 30.13 in Calm   1 mph 64% 0.00 in 0 W/m2
01:44 36.1 °F 25.2 °F 30.13 in Calm   1 mph 64% 0.00 in 0 W/m2
01:49 36.1 °F 25.1 °F 30.14 in Calm   1 mph 64% 0.00 in 0 W/m2
01:54 36.1 °F 25.1 °F 30.14 in Calm   1 mph 64% 0.00 in 0 W/m2
01:59 36.2 °F 25.2 °F 30.14 in Calm   1 mph 64% 0.00 in 0 W/m2
02:04 36.3 °F 25.3 °F 30.14 in Calm   1 mph 64% 0.00 in 0 W/m2
02:09 36.4 °F 25.1 °F 30.14 in WSW 0.1 mph 1 mph 63.1% 0.00 in 0 W/m2
02:14 36.5 °F 25.2 °F 30.14 in Calm   1 mph 63.2% 0.00 in 0 W/m2
02:19 36.6 °F 25.2 °F 30.13 in Calm   1 mph 63% 0.00 in 0 W/m2
02:24 36.6 °F 25.2 °F 30.13 in WSW 0.1 mph 4 mph 63% 0.00 in 0 W/m2
02:29 36.8 °F 25 °F 30.14 in WSW 0.4 mph 4 mph 62.1% 0.00 in 0 W/m2
02:34 36.9 °F 25.1 °F 30.14 in WSW 0.4 mph 4 mph 62% 0.00 in 0 W/m2
02:39 36.9 °F 25.3 °F 30.14 in WSW 0.1 mph 2 mph 62.4% 0.00 in 0 W/m2
02:44 36.8 °F 25.4 °F 30.14 in Calm   2 mph 63% 0.00 in 0 W/m2
02:49 36.7 °F 25.2 °F 30.14 in WSW 0.3 mph 3 mph 62.8% 0.00 in 0 W/m2
02:54 36.7 °F 24.9 °F 30.14 in WSW 0.3 mph 3 mph 62% 0.00 in 0 W/m2
02:59 36.8 °F 25.1 °F 30.14 in WSW 0.1 mph 3 mph 62.2% 0.00 in 0 W/m2
03:04 36.8 °F 25 °F 30.14 in Calm   3 mph 62% 0.00 in 0 W/m2
03:09 36.7 °F 24.9 °F 30.15 in Calm   1 mph 62% 0.00 in 0 W/m2
03:14 36.7 °F 25 °F 30.15 in WSW 0.1 mph 2 mph 62.1% 0.00 in 0 W/m2
03:19 36.7 °F 24.9 °F 30.16 in Calm   2 mph 62% 0.00 in 0 W/m2
03:24 36.6 °F 24.8 °F 30.16 in Calm   2 mph 62% 0.00 in 0 W/m2
03:29 36.6 °F 24.8 °F 30.16 in Calm   2 mph 62% 0.00 in 0 W/m2
03:34 36.5 °F 24.8 °F 30.16 in Calm   2 mph 62.1% 0.00 in 0 W/m2
03:39 36.4 °F 25 °F 30.17 in Calm     63% 0.00 in 0 W/m2
03:44 36.3 °F 24.9 °F 30.17 in Calm     63% 0.00 in 0 W/m2
03:49 36.2 °F 25 °F 30.17 in Calm     63.4% 0.00 in 0 W/m2
03:54 36.1 °F 25.1 °F 30.16 in Calm     64% 0.00 in 0 W/m2
03:59 36 °F 25 °F 30.16 in Calm     64% 0.00 in 0 W/m2
04:00 36 °F 25 °F 30.16 in Calm     64% 0.00 in 0 W/m2
04:09 36.2 °F 24.8 °F 30.16 in Calm     63% 0.00 in 0 W/m2
04:14 36.4 °F 25 °F 30.16 in Calm     63% 0.00 in 0 W/m2
04:19 36.7 °F 24.9 °F 30.16 in WSW 0.1 mph 2 mph 62% 0.00 in 0 W/m2
04:24 36.9 °F 24.9 °F 30.15 in WSW 0.1 mph 2 mph 61.3% 0.00 in 0 W/m2
04:29 37.2 °F 25 °F 30.15 in Calm   2 mph 61% 0.00 in 0 W/m2
04:34 37.5 °F 25.2 °F 30.15 in WSW 0.1 mph 2 mph 60.9% 0.00 in 0 W/m2
04:39 37.7 °F 25.1 °F 30.14 in Calm   1 mph 60% 0.00 in 0 W/m2
04:44 37.9 °F 25.4 °F 30.15 in WSW 0.1 mph 2 mph 60.4% 0.00 in 0 W/m2
04:49 38 °F 25.3 °F 30.15 in WSW 0.1 mph 2 mph 60% 0.00 in 0 W/m2
04:54 38 °F 25.3 °F 30.15 in Calm   2 mph 59.9% 0.00 in 0 W/m2
04:59 38.1 °F 25.3 °F 30.16 in WSW 0.2 mph 2 mph 59.7% 0.00 in 0 W/m2
05:04 38.2 °F 25.3 °F 30.15 in Calm   2 mph 59.4% 0.00 in 0 W/m2
05:09 38.2 °F 25.6 °F 30.15 in Calm     60% 0.00 in 0 W/m2
05:14 38.2 °F 25.2 °F 30.16 in Calm     59.2% 0.00 in 0 W/m2
05:19 38.3 °F 25.3 °F 30.16 in Calm   1 mph 59% 0.00 in 0 W/m2
05:24 38.5 °F 25.7 °F 30.17 in WSW 0.1 mph 1 mph 59.8% 0.00 in 0 W/m2
05:29 38.4 °F 25.7 °F 30.17 in Calm   1 mph 60% 0.00 in 0 W/m2
05:34 38.3 °F 25.7 °F 30.17 in Calm   1 mph 60% 0.00 in 0 W/m2
05:39 38.3 °F 25.6 °F 30.16 in WSW 0.2 mph 1 mph 59.8% 0.00 in 0 W/m2
05:44 38.4 °F 25.5 °F 30.17 in Calm   1 mph 59.3% 0.00 in 0 W/m2
05:49 38.5 °F 25.8 °F 30.17 in Calm   1 mph 60% 0.00 in 0 W/m2
05:54 38.4 °F 25.7 °F 30.17 in Calm   1 mph 60% 0.00 in 0 W/m2
05:59 38.3 °F 25.7 °F 30.17 in Calm   1 mph 60.2% 0.00 in 0 W/m2
06:04 38.3 °F 26 °F 30.17 in WSW 0.2 mph 2 mph 60.9% 0.00 in 0 W/m2
06:09 38.4 °F 25.6 °F 30.17 in WSW 0.5 mph 2 mph 59.6% 0.00 in 0 W/m2
06:14 38.7 °F 25.5 °F 30.17 in WSW 0.1 mph 2 mph 58.8% 0.00 in 0 W/m2
06:19 39 °F 25.8 °F 30.18 in Calm   2 mph 58.9% 0.00 in 0 W/m2
06:24 39.1 °F 26 °F 30.18 in WSW 0.1 mph 2 mph 59% 0.00 in 0 W/m2
06:29 39 °F 25.9 °F 30.18 in Calm   2 mph 59% 0.00 in 0 W/m2
06:34 38.9 °F 25.9 °F 30.17 in WSW 0.3 mph 2 mph 59.3% 0.00 in 0 W/m2
06:39 38.8 °F 26 °F 30.18 in Calm   2 mph 59.7% 0.00 in 0 W/m2
06:44 38.7 °F 25.8 °F 30.18 in Calm   2 mph 59.5% 0.00 in 0 W/m2
06:49 38.6 °F 25.9 °F 30.18 in Calm   2 mph 60% 0.00 in 0 W/m2
06:54 38.5 °F 25.9 °F 30.18 in Calm   2 mph 60% 0.00 in 0 W/m2
06:59 38.4 °F 25.6 °F 30.18 in Calm   2 mph 59.7% 0.00 in 0 W/m2
07:04 38.4 °F 25.7 °F 30.18 in Calm   2 mph 59.7% 0.00 in 0 W/m2
07:09 38.6 °F 25.9 °F 30.18 in Calm     60% 0.00 in 0 W/m2
07:14 38.7 °F 26 °F 30.18 in WSW 0.4 mph 2 mph 60% 0.00 in 0 W/m2
07:19 38.8 °F 25.8 °F 30.18 in Calm   2 mph 59.1% 0.00 in 0 W/m2
07:24 38.9 °F 25.9 °F 30.18 in WSW 0.1 mph 2 mph 59% 0.00 in 0 W/m2
07:29 39 °F 25.9 °F 30.18 in Calm   2 mph 59% 0.00 in 5 W/m2
07:34 39.1 °F 26.1 °F 30.18 in Calm   2 mph 59.3% 0.00 in 7 W/m2
07:39 39.2 °F 26.1 °F 30.18 in Calm     59% 0.00 in 14 W/m2
07:44 39.2 °F 26.1 °F 30.18 in Calm     59% 0.00 in 19 W/m2
07:49 39.1 °F 26 °F 30.18 in Calm     59% 0.00 in 25 W/m2
07:54 39.2 °F 26.1 °F 30.17 in Calm     59% 0.00 in 28 W/m2
07:59 39.3 °F 26.2 °F 30.18 in Calm     59% 0.00 in 25 W/m2
08:00 39.3 °F 26.2 °F 30.18 in Calm     59% 0.00 in 25 W/m2
08:09 39.3 °F 26.2 °F 30.18 in Calm     59% 0.00 in 28 W/m2
08:14 39.5 °F 26.6 °F 30.18 in Calm     59.7% 0.00 in 25 W/m2
08:19 39.6 °F 26.8 °F 30.18 in Calm     59.7% 0.00 in 37 W/m2
08:24 39.8 °F 27.1 °F 30.18 in Calm     60.2% 0.00 in 42 W/m2
08:29 39.8 °F 27.1 °F 30.18 in Calm     60% 0.00 in 33 W/m2
08:34 39.9 °F 27 °F 30.18 in Calm   1 mph 59.5% 0.00 in 33 W/m2
08:39 40 °F 26.5 °F 30.18 in Calm   1 mph 58% 0.00 in 33 W/m2
08:44 40.2 °F 26.6 °F 30.18 in Calm   1 mph 58% 0.00 in 51 W/m2
08:49 40.4 °F 27.1 °F 30.18 in SW 0.6 mph 3 mph 58.7% 0.00 in 54 W/m2
08:54 40.6 °F 27.2 °F 30.18 in SW 0.4 mph 3 mph 58.5% 0.00 in 54 W/m2
08:59 40.9 °F 27.5 °F 30.18 in WSW 0.2 mph 3 mph 58.6% 0.00 in 53 W/m2
09:04 41.2 °F 27.1 °F 30.18 in WSW 0.1 mph 3 mph 57% 0.00 in 53 W/m2
09:09 41.5 °F 27.4 °F 30.19 in WSW 0.3 mph 2 mph 57% 0.00 in 54 W/m2
09:14 41.7 °F 27.6 °F 30.18 in WSW 0.5 mph 5 mph 57% 0.00 in 63 W/m2
09:19 42 °F 27.5 °F 30.19 in WSW 0.9 mph 5 mph 56.1% 0.00 in 60 W/m2
09:24 42.3 °F 27.4 °F 30.19 in WSW 0.6 mph 5 mph 55.3% 0.00 in 62 W/m2
09:29 42.5 °F 27.6 °F 30.19 in WSW 0.7 mph 5 mph 55.2% 0.00 in 60 W/m2
09:34 42.7 °F 27.7 °F 30.19 in WSW 0.4 mph 5 mph 55.1% 0.00 in 74 W/m2
09:39 42.9 °F 27.7 °F 30.19 in SW 1.5 mph 5 mph 54.7% 0.00 in 84 W/m2
09:44 43.2 °F 27.4 °F 30.19 in SW 2.3 mph 6 mph 53.5% 0.00 in 72 W/m2
09:49 43.4 °F 27.8 °F 30.20 in WSW 1.8 mph 7 mph 53.8% 0.00 in 69 W/m2
09:54 43.6 °F 28 °F 30.20 in WSW 2.1 mph 10 mph 53.9% 0.00 in 98 W/m2
09:59 43.8 °F 28.2 °F 30.20 in SW 2.1 mph 10 mph 54% 0.00 in 167 W/m2
10:04 44.1 °F 28.5 °F 30.19 in SW 1.9 mph 12 mph 54% 0.00 in 327 W/m2
10:09 44.8 °F 29 °F 30.19 in SW 3 mph 13 mph 53.8% 0.00 in 373 W/m2
10:14 45.4 °F 28.8 °F 30.19 in WSW 0.5 mph 13 mph 51.9% 0.00 in 155 W/m2
10:19 45.7 °F 29.5 °F 30.18 in WSW 1.5 mph 13 mph 52.9% 0.00 in 206 W/m2
10:24 46 °F 29.3 °F 30.18 in WSW 0.8 mph 13 mph 51.7% 0.00 in 206 W/m2
10:29 46.4 °F 29 °F 30.18 in WSW 1.9 mph 13 mph 50.4% 0.00 in 218 W/m2
10:34 46.6 °F 29.1 °F 30.18 in WSW 1.5 mph 13 mph 50.3% 0.00 in 176 W/m2
10:39 46.9 °F 29.2 °F 30.18 in WSW 1.1 mph 9 mph 49.9% 0.00 in 204 W/m2
10:44 47.3 °F 29.1 °F 30.17 in SW 0.9 mph 9 mph 49% 0.00 in 216 W/m2
10:49 47.6 °F 29.6 °F 30.17 in SW 1.3 mph 9 mph 49.3% 0.00 in 230 W/m2
10:54 48 °F 29.2 °F 30.16 in SW 0.6 mph 9 mph 47.9% 0.00 in 227 W/m2
10:59 48.5 °F 30.1 °F 30.15 in SW 0.8 mph 9 mph 48.7% 0.00 in 241 W/m2
11:04 49 °F 29.3 °F 30.16 in SW 1.1 mph 9 mph 46.3% 0.00 in 248 W/m2
11:09 49.4 °F 29.5 °F 30.16 in SW 0.5 mph 4 mph 46% 0.00 in 192 W/m2
11:14 49.6 °F 29.2 °F 30.16 in SW 0.8 mph 5 mph 45.1% 0.00 in 167 W/m2
11:19 49.7 °F 28.9 °F 30.15 in WSW 0.4 mph 5 mph 44.5% 0.00 in 171 W/m2
11:24 49.7 °F 30.3 °F 30.15 in SW 1.2 mph 5 mph 46.9% 0.00 in 171 W/m2
11:29 49.7 °F 28.7 °F 30.14 in SW 0.4 mph 5 mph 43.9% 0.00 in 169 W/m2
11:34 49.8 °F 28.8 °F 30.14 in SW 0.2 mph 5 mph 44.1% 0.00 in 162 W/m2
11:39 49.9 °F 29 °F 30.14 in WSW 0.7 mph 5 mph 44.4% 0.00 in 149 W/m2
11:44 49.9 °F 28.9 °F 30.14 in SW 0.4 mph 5 mph 44% 0.00 in 149 W/m2
11:49 50 °F 29.3 °F 30.14 in SW 0.2 mph 5 mph 44.6% 0.00 in 146 W/m2
11:54 50 °F 28.9 °F 30.14 in SW 0.5 mph 5 mph 43.9% 0.00 in 132 W/m2
11:59 50 °F 28.8 °F 30.13 in SW 1.9 mph 7 mph 43.7% 0.00 in 167 W/m2
12:00 50 °F 28.4 °F 30.13 in SW 1 mph 7 mph 43% 0.00 in 153 W/m2
12:09 50.4 °F 28.8 °F 30.13 in SW 1.8 mph 6 mph 43.2% 0.00 in 497 W/m2
12:14 50.9 °F 29.5 °F 30.13 in SW 1.2 mph 6 mph 43.5% 0.00 in 468 W/m2
12:19 51.5 °F 29.3 °F 30.13 in SW 1.9 mph 9 mph 42.1% 0.00 in 246 W/m2
12:24 51.9 °F 29.7 °F 30.12 in SW 1.1 mph 9 mph 42.2% 0.00 in 53 W/m2
12:29 52.2 °F 29.9 °F 30.13 in SW 1.3 mph 9 mph 42.2% 0.00 in 100 W/m2
12:34 52.4 °F 29.5 °F 30.13 in SW 0.5 mph 9 mph 41.1% 0.00 in 369 W/m2
12:39 53 °F 30 °F 30.12 in WSW 1.1 mph 10 mph 41% 0.00 in 459 W/m2
12:44 53.7 °F 29.5 °F 30.12 in SW 1.5 mph 10 mph 39.2% 0.00 in 432 W/m2
12:49 54.4 °F 29.8 °F 30.11 in SW 1.9 mph 10 mph 38.7% 0.00 in 265 W/m2
12:54 54.9 °F 30 °F 30.11 in WSW 1 mph 10 mph 38.3% 0.00 in 91 W/m2
12:59 55 °F 29.4 °F 30.11 in WSW 1.1 mph 10 mph 37.3% 0.00 in 121 W/m2
13:04 55.1 °F 29.6 °F 30.11 in WSW 1 mph 10 mph 37.3% 0.00 in 410 W/m2
13:09 55.4 °F 29.6 °F 30.10 in WSW 0.4 mph 4 mph 37% 0.00 in 186 W/m2
13:14 55.8 °F 29.2 °F 30.10 in WSW 0.4 mph 4 mph 35.8% 0.00 in 211 W/m2
13:19 56.2 °F 29.5 °F 30.10 in SW 1.6 mph 7 mph 35.8% 0.00 in 278 W/m2
13:24 56.2 °F 30.6 °F 30.10 in WSW 0.3 mph 7 mph 37.4% 0.00 in 338 W/m2
13:29 56.2 °F 30 °F 30.10 in WSW 1.6 mph 7 mph 36.6% 0.00 in 338 W/m2
13:34 56.1 °F 28.8 °F 30.10 in SW 1.9 mph 7 mph 35% 0.00 in 221 W/m2
13:39 55.7 °F 28.7 °F 30.10 in SW 1.7 mph 9 mph 35.3% 0.00 in 216 W/m2
13:44 55.4 °F 29 °F 30.10 in SW 1.3 mph 9 mph 36.2% 0.00 in 123 W/m2
13:49 55.2 °F 28.8 °F 30.10 in WSW 1 mph 9 mph 36.1% 0.00 in 181 W/m2
13:54 55.1 °F 28.7 °F 30.10 in WSW 1.6 mph 9 mph 36.2% 0.00 in 227 W/m2
13:59 55.2 °F 28.3 °F 30.09 in SW 1.7 mph 9 mph 35.4% 0.00 in 297 W/m2
14:04 55.4 °F 27.4 °F 30.09 in SW 1.9 mph 9 mph 33.8% 0.00 in 297 W/m2
14:09 55.8 °F 27.6 °F 30.09 in WSW 1.8 mph 7 mph 33.6% 0.00 in 185 W/m2
14:14 55.9 °F 27 °F 30.09 in SW 2.5 mph 9 mph 32.7% 0.00 in 153 W/m2
14:19 55.7 °F 26.4 °F 30.09 in WSW 1.9 mph 11 mph 32.1% 0.00 in 113 W/m2
14:24 55.5 °F 26.8 °F 30.09 in WSW 2.2 mph 11 mph 32.9% 0.00 in 241 W/m2
14:29 55.5 °F 26.6 °F 30.09 in WSW 2.1 mph 11 mph 32.6% 0.00 in 209 W/m2
14:34 55.5 °F 26.8 °F 30.08 in WSW 0.7 mph 11 mph 33% 0.00 in 44 W/m2
14:38 55.3 °F 27.4 °F 30.09 in WSW 0.3 mph 6 mph 33.9% 0.00 in 26 W/m2
Hartford County Weather
Compliments of Weather Underground - 4 mb